Latest Weather Observations for Ulladulla

IDN60901

Issued at 7:01 pm EST Monday 31 August 2015 (issued every 10 minutes, with the page automatically refreshed every 10 minutes)

About weather observations | Map of Canberra area stations | Latest observations for Canberra area | Other Formats
Station Details ID: 069138 Name: ULLADULLA AWS Lat: -35.36 Lon: 150.48 Height: 35.7 m
Data from the previous 72 hours. | See also: Recent months at Ulladulla
Date/Time
EST
Tmp

°C
App
Tmp
°C
Dew
Point
°C
Rel
Hum
%
Delta-T

°C
Wind Press
QNH
hPa
Press
MSL
hPa
Rain
since
9 am
mm
Dir
 
Spd
km/h
Gust
km/h
Spd
kts
Gust
kts
31/07:00pm 13.4 11.6 8.0 70 2.7 WSW 7 11 4 6 1015.0 1015.0 0.0
31/06:30pm 14.6 11.1 8.8 68 2.9 S 17 28 9 15 1014.8 1014.8 0.0
31/06:00pm 14.6 11.2 9.0 69 2.9 S 17 24 9 13 1014.5 1014.5 0.0
31/05:30pm 14.4 10.4 8.1 66 3.1 S 19 24 10 13 1014.4 1014.4 0.0
31/05:00pm 14.5 10.4 7.8 64 3.3 S 19 24 10 13 1014.2 1014.2 0.0
31/04:30pm 14.6 10.8 7.6 63 3.5 S 17 22 9 12 1014.1 1014.1 0.0
31/04:00pm 15.2 11.8 7.5 60 3.8 SSE 15 20 8 11 1013.9 1013.9 0.0
31/03:30pm 15.6 12.8 7.1 57 4.2 SSE 11 17 6 9 1014.1 1014.1 0.0
31/03:00pm 15.7 13.0 7.2 57 4.2 SSE 11 17 6 9 1014.2 1014.2 0.0
31/02:30pm 16.0 13.0 7.5 57 4.2 SSE 13 19 7 10 1014.5 1014.5 0.0
31/02:00pm 15.7 12.0 6.4 54 4.5 S 15 22 8 12 1014.8 1014.8 0.0
31/01:30pm 15.8 11.8 6.5 54 4.5 S 17 22 9 12 1015.0 1015.0 0.0
31/01:00pm 15.6 11.3 6.9 56 4.3 S 19 26 10 14 1015.3 1015.3 0.0
31/12:30pm 15.4 10.3 5.9 53 4.6 S 22 28 12 15 1015.6 1015.6 0.0
31/12:00pm 16.0 12.8 6.7 54 4.6 S 13 20 7 11 1016.0 1016.0 0.0
31/11:30am 15.4 11.3 6.4 55 4.4 S 17 22 9 12 1016.4 1016.4 0.0
31/11:00am 15.2 11.3 5.4 52 4.6 SSW 15 24 8 13 1016.7 1016.7 0.0
31/10:30am 14.9 10.6 5.4 53 4.5 SSW 17 26 9 14 1016.9 1016.9 0.0
31/10:00am 14.8 10.8 4.8 51 4.7 SSW 15 24 8 13 1017.2 1017.2 0.0
31/09:30am 14.2 10.3 3.4 48 4.9 SSW 13 19 7 10 1017.4 1017.4 0.0
31/09:00am 13.7 10.6 3.5 50 4.6 SSW 9 17 5 9 1017.5 1017.5 0.0
31/08:30am 13.3 10.8 3.7 52 4.3 WSW 6 11 3 6 1017.4 1017.4 0.0
31/08:00am 12.5 10.0 4.0 56 3.8 W 6 9 3 5 1017.4 1017.4 0.0
31/07:30am 10.8 8.1 3.6 61 3.2 WSW 7 11 4 6 1017.5 1017.5 0.0
31/07:00am 8.8 6.0 3.4 69 2.3 WSW 7 9 4 5 1017.4 1017.4 0.0
31/06:30am 7.3 4.4 2.6 72 2.0 WSW 7 11 4 6 1017.2 1017.2 0.0
31/06:00am 7.2 3.9 2.5 72 1.9 WSW 9 13 5 7 1016.9 1016.9 0.0
31/05:30am 7.6 4.3 2.7 71 2.1 WSW 9 11 5 6 1016.9 1016.9 0.0
31/05:00am 7.6 4.4 2.9 72 2.0 WSW 9 11 5 6 1016.9 1016.9 0.0
31/04:30am 7.6 5.0 3.1 73 1.9 WSW 6 15 3 8 1017.0 1017.0 0.0
31/04:00am 7.7 4.9 3.4 74 1.8 W 7 9 4 5 1016.9 1016.9 0.0
31/03:30am 7.5 4.7 3.0 73 1.9 W 7 9 4 5 1016.9 1016.9 0.0
31/03:00am 7.9 5.1 3.4 73 1.9 WSW 7 11 4 6 1017.3 1017.3 0.0
31/02:30am 8.7 5.9 3.3 69 2.3 SW 7 11 4 6 1017.9 1017.9 0.0
31/02:00am 9.3 6.2 3.5 67 2.5 SW 9 15 5 8 1018.3 1018.3 0.0
31/01:30am 9.3 6.3 4.1 70 2.3 SW 9 17 5 9 1018.6 1018.6 0.0
31/01:00am 8.9 6.4 4.5 74 1.9 SSW 7 11 4 6 1018.7 1018.7 0.0
31/12:30am 8.2 6.5 4.2 76 1.7 WSW 2 6 1 3 1018.8 1018.8 0.0
31/12:00am 8.7 6.2 4.7 76 1.8 WSW 7 9 4 5 1018.9 1018.9 0.0
 
Date/Time
EST
Tmp

°C
App
Tmp
°C
Dew
Point
°C
Rel
Hum
%
Delta-T

°C
Wind Press
QNH
hPa
Press
MSL
hPa
Rain
since
9 am
mm
Dir
 
Spd
km/h
Gust
km/h
Spd
kts
Gust
kts
30/11:30pm 9.4 6.9 4.6 72 2.1 SW 7 9 4 5 1018.9 1018.9 0.0
30/11:00pm 9.8 7.1 5.4 74 2.0 WSW 9 13 5 7 1018.9 1018.9 0.0
30/10:30pm 10.3 7.2 5.5 72 2.2 SW 11 17 6 9 1019.2 1019.2 0.0
30/10:00pm 10.7 7.3 5.7 71 2.3 SW 13 19 7 10 1019.5 1019.5 0.0
30/09:30pm 11.0 7.9 5.7 70 2.5 SW 11 15 6 8 1019.5 1019.5 0.0
30/09:00pm 11.2 8.5 5.7 69 2.5 SW 9 15 5 8 1019.4 1019.4 0.0
30/08:30pm 11.8 8.4 5.9 67 2.8 SW 13 19 7 10 1019.2 1019.2 0.0
30/08:00pm 11.9 9.2 5.8 66 2.8 WSW 9 17 5 9 1018.9 1018.9 0.0
30/07:30pm 12.9 9.6 6.5 65 3.1 SW 13 22 7 12 1018.6 1018.6 0.0
30/07:00pm 13.2 10.0 6.8 65 3.1 SW 13 20 7 11 1018.5 1018.5 0.0
30/06:30pm 13.3 9.9 7.5 68 2.8 SSW 15 20 8 11 1018.3 1018.3 0.0
30/06:00pm 14.5 8.6 7.3 62 3.5 S 28 37 15 20 1018.2 1018.2 0.0
30/05:30pm 14.1 10.9 8.3 68 2.9 SSW 15 26 8 14 1018.0 1018.0 0.0
30/05:00pm 14.4 10.5 7.2 62 3.5 SSW 17 30 9 16 1017.9 1017.9 0.0
30/04:30pm 14.7 9.9 7.5 62 3.6 S 22 32 12 17 1017.7 1017.7 0.0
30/04:00pm 14.5 10.6 7.1 61 3.6 S 17 30 9 16 1017.7 1017.7 0.0
30/03:30pm 14.7 9.7 6.5 58 4.0 S 22 30 12 16 1017.8 1017.8 0.0
30/03:00pm 14.8 11.3 7.4 61 3.6 SSW 15 22 8 12 1017.8 1017.8 0.0
30/02:30pm 14.8 9.8 6.6 58 4.0 S 22 30 12 16 1018.0 1018.0 0.0
30/02:00pm 14.9 11.6 7.9 63 3.5 S 15 24 8 13 1018.1 1018.1 0.0
30/01:30pm 15.0 11.9 7.1 59 3.9 S 13 19 7 10 1018.3 1018.3 0.0
30/01:00pm 14.7 11.1 6.8 59 3.8 S 15 20 8 11 1018.7 1018.7 0.0
30/12:30pm 14.3 10.5 5.7 56 4.1 S 15 19 8 10 1019.0 1019.0 0.0
30/12:00pm 14.8 11.1 6.4 57 4.1 S 15 24 8 13 1019.4 1019.4 0.0
30/11:30am 14.1 9.9 5.5 56 4.1 SSW 17 30 9 16 1019.8 1019.8 0.0
30/11:00am 14.4 10.5 5.5 55 4.2 SSW 15 22 8 12 1020.0 1020.0 0.0
30/10:30am 14.4 10.6 5.7 56 4.1 SSW 15 24 8 13 1020.1 1020.1 0.0
30/10:00am 14.6 10.2 4.6 51 4.6 SSW 17 28 9 15 1020.1 1020.1 0.0
30/09:30am 13.6 10.8 5.0 56 4.0 SW 9 17 5 9 1020.3 1020.3 0.0
30/09:00am 13.2 9.9 4.4 55 4.0 WSW 11 17 6 9 1020.3 1020.3 0.0
30/08:30am 13.3 11.0 5.7 60 3.6 WSW 7 13 4 7 1020.0 1020.0 0.0
30/08:00am 10.9 8.6 5.0 67 2.7 W 6 11 3 6 1019.9 1019.9 0.0
30/07:30am 9.8 7.2 4.2 68 2.5 W 7 9 4 5 1019.6 1019.6 0.0
30/07:00am 9.2 6.2 4.0 70 2.3 W 9 15 5 8 1019.5 1019.5 0.0
30/06:30am 8.5 5.8 3.8 72 2.0 W 7 11 4 6 1019.3 1019.3 0.0
30/06:00am 7.8 4.6 3.1 72 2.0 W 9 13 5 7 1019.3 1019.3 0.0
30/05:30am 8.1 5.2 2.8 69 2.2 W 7 11 4 6 1019.1 1019.1 0.0
30/05:00am 8.2 5.4 2.9 69 2.2 W 7 9 4 5 1019.2 1019.2 0.0
30/04:30am 7.9 5.1 3.0 71 2.1 W 7 11 4 6 1019.2 1019.2 0.0
30/04:00am 8.0 5.2 3.1 71 2.1 W 7 11 4 6 1019.3 1019.3 0.0
30/03:30am 8.1 4.9 3.0 70 2.2 W 9 13 5 7 1019.2 1019.2 0.0
30/03:00am 8.4 5.2 2.8 68 2.4 W 9 13 5 7 1019.4 1019.4 0.0
30/02:30am 8.4 5.5 2.6 67 2.4 W 7 11 4 6 1019.5 1019.5 0.0
30/02:00am 8.4 5.5 2.8 68 2.4 WNW 7 11 4 6 1019.7 1019.7 0.0
30/01:30am 8.3 5.7 3.0 69 2.3 WNW 6 9 3 5 1020.2 1020.2 0.0
30/01:00am 8.6 5.8 3.2 69 2.3 W 7 11 4 6 1020.6 1020.6 0.0
30/12:30am 8.6 5.8 3.0 68 2.4 WSW 7 13 4 7 1020.6 1020.6 0.0
30/12:00am 9.3 6.1 2.9 64 2.7 WSW 9 13 5 7 1020.6 1020.6 0.0
 
Date/Time
EST
Tmp

°C
App
Tmp
°C
Dew
Point
°C
Rel
Hum
%
Delta-T

°C
Wind Press
QNH
hPa
Press
MSL
hPa
Rain
since
9 am
mm
Dir
 
Spd
km/h
Gust
km/h
Spd
kts
Gust
kts
29/11:30pm 10.1 7.2 2.7 60 3.2 W 7 15 4 8 1020.4 1020.4 0.0
29/11:00pm 10.3 7.0 2.7 59 3.3 W 9 13 5 7 1020.3 1020.3 0.0
29/10:30pm 10.6 7.3 2.4 57 3.5 W 9 17 5 9 1020.1 1020.1 0.0
29/10:00pm 10.4 7.5 2.5 58 3.4 WNW 7 9 4 5 1019.9 1019.9 0.0
29/09:30pm 10.8 7.4 1.9 54 3.8 WNW 9 15 5 8 1020.0 1020.0 0.0
29/09:00pm 11.1 7.8 2.2 54 3.8 WNW 9 15 5 8 1020.0 1020.0 0.0
29/08:30pm 11.2 8.0 3.0 57 3.6 WNW 9 15 5 8 1019.8 1019.8 0.0
29/08:00pm 11.3 8.9 5.2 66 2.8 WNW 7 11 4 6 1019.7 1019.7 0.0
29/07:30pm 11.3 9.7 8.0 80 1.6 WNW 6 7 3 4 1019.6 1019.6 0.0
29/07:00pm 11.8 10.8 7.3 74 2.2 WNW 2 4 1 2 1019.5 1019.5 0.0
29/06:30pm 13.1 11.5 7.8 70 2.6 SSE 6 9 3 5 1019.3 1019.3 0.0
29/06:00pm 13.1 11.3 8.0 71 2.5 SE 7 11 4 6 1019.0 1019.0 0.0
29/05:30pm 13.5 11.4 8.1 70 2.7 SSE 9 15 5 8 1018.6 1018.6 0.0
29/05:00pm 13.9 12.3 8.1 68 2.9 SE 6 9 3 5 1018.2 1018.2 0.0
29/04:30pm 14.5 12.9 8.0 65 3.2 ESE 6 11 3 6 1017.7 1017.7 0.0
29/04:00pm 15.3 13.6 8.5 64 3.4 ESE 7 11 4 6 1017.5 1017.5 0.0
29/03:30pm 15.5 13.9 8.7 64 3.5 ENE 7 13 4 7 1017.4 1017.4 0.0
29/03:00pm 15.4 13.8 8.2 62 3.6 ENE 6 9 3 5 1017.6 1017.6 0.0
29/02:30pm 15.5 13.7 8.0 61 3.8 ESE 7 11 4 6 1017.7 1017.7 0.0
29/02:00pm 15.6 13.3 7.4 58 4.1 SSE 9 17 5 9 1017.8 1017.8 0.0
29/01:30pm 15.6 13.0 7.9 60 3.9 SSE 11 19 6 10 1018.1 1018.1 0.0
29/01:00pm 15.6 12.1 7.1 57 4.2 S 15 24 8 13 1018.6 1018.6 0.0
29/12:30pm 17.3 13.8 5.3 45 5.8 W 13 28 7 15 1019.2 1019.2 0.0
29/12:00pm 16.5 13.6 4.5 45 5.6 WSW 9 26 5 14 1019.7 1019.7 0.0
29/11:30am 16.5 13.5 5.8 49 5.2 WNW 11 20 6 11 1020.1 1020.1 0.0
29/11:00am 15.2 13.1 8.4 64 3.4 SSW 9 20 5 11 1020.6 1020.6 0.0
29/10:30am 13.9 10.8 7.4 65 3.2 S 13 22 7 12 1020.9 1020.9 0.0
29/10:00am 13.5 10.9 7.9 69 2.8 SSW 11 22 6 12 1021.1 1021.1 0.0
29/09:30am 13.1 10.2 8.0 71 2.5 SSW 13 19 7 10 1021.4 1021.4 0.0
29/09:00am 12.7 10.8 7.4 70 2.6 SSW 7 13 4 7 1021.5 1021.5 4.8
29/08:30am 11.9 9.7 6.4 69 2.6 WSW 7 17 4 9 1021.5 1021.5 4.8
29/08:00am 11.8 10.1 6.1 68 2.7 NW 4 11 2 6 1021.7 1021.7 4.8
29/07:30am 10.5 9.4 6.8 78 1.7 WNW 2 9 1 5 1021.7 1021.7 4.8
29/07:00am 9.0 7.5 8.4 96 0.3 WNW 6 11 3 6 1021.6 1021.6 4.8
29/06:30am 7.6 5.7 7.6 100 0.0 NW 7 13 4 7 1021.5 1021.5 4.8
29/06:00am 7.2 5.3 6.9 98 0.1 NNW 6 9 3 5 1021.3 1021.3 4.8
29/05:30am 7.8 6.1 7.4 97 0.2 WSW 6 11 3 6 1021.1 1021.1 4.8
29/05:00am 8.3 7.1 8.0 98 0.1 WNW 4 6 2 3 1021.2 1021.2 4.8
29/04:30am 8.3 7.4 7.7 96 0.3 W 2 6 1 3 1021.2 1021.2 4.8
29/04:00am 9.0 7.5 8.4 96 0.3 SW 6 7 3 4 1021.1 1021.1 4.8
29/03:30am 9.3 8.3 8.7 96 0.3 WNW 4 7 2 4 1021.3 1021.3 4.6
29/03:00am 9.7 8.8 9.2 97 0.2 WNW 4 6 2 3 1021.6 1021.6 4.6
29/02:30am 9.8 8.4 9.5 98 0.1 WSW 7 9 4 5 1021.9 1021.9 4.6
29/02:00am 9.9 8.5 9.6 98 0.1 W 7 9 4 5 1022.2 1022.2 4.6
29/01:30am 10.1 8.9 9.6 97 0.3 W 6 9 3 5 1022.4 1022.4 4.6
29/01:00am 10.3 9.2 9.8 97 0.3 WSW 6 7 3 4 1022.5 1022.5 4.6
29/12:30am 10.8 9.9 10.5 98 0.2 WSW 6 9 3 5 1022.5 1022.5 4.6
29/12:00am 10.9 9.7 10.4 97 0.3 WSW 7 13 4 7 1022.8 1022.8 4.2
 
Date/Time
EST
Tmp

°C
App
Tmp
°C
Dew
Point
°C
Rel
Hum
%
Delta-T

°C
Wind Press
QNH
hPa
Press
MSL
hPa
Rain
since
9 am
mm
Dir
 
Spd
km/h
Gust
km/h
Spd
kts
Gust
kts
28/11:30pm 11.3 10.2 10.8 97 0.3 W 7 13 4 7 1022.8 1022.8 3.2
28/11:00pm 11.5 10.7 11.0 97 0.3 W 6 9 3 5 1022.7 1022.7 3.0
28/10:30pm 11.6 10.8 11.1 97 0.3 W 6 11 3 6 1022.7 1022.7 3.0
28/10:00pm 11.8 11.1 11.5 98 0.2 W 6 7 3 4 1022.8 1022.8 2.8
28/09:30pm 12.0 10.5 11.8 99 0.1 SSW 11 19 6 10 1022.7 1022.7 2.8
28/09:00pm 11.8 10.5 11.3 97 0.3 WSW 9 13 5 7 1022.7 1022.7 2.6
28/08:30pm 12.0 11.7 11.4 96 0.3 W 4 9 2 5 1022.6 1022.6 2.6
28/08:00pm 12.0 11.7 11.4 96 0.3 W 4 9 2 5 1022.3 1022.3 2.6
28/07:30pm 12.1 11.5 11.6 97 0.3 SW 6 9 3 5 1022.0 1022.0 2.2

Latest Capital City Observations: Canberra | Sydney | Melbourne | Brisbane | Adelaide | Perth | Hobart | Darwin

Other Formats:

Comma delimited format used in spreadsheet applications
http://www.bom.gov.au/fwo/IDN60903/IDN60903.94938.axf

JavaScript Object Notation format (JSON) in row-major order
http://www.bom.gov.au/fwo/IDN60903/IDN60903.94938.json